sensor_id;sensor_type;location;lat;lon;timestamp;temperature;humidity
8475;DHT22;4274;52.012;8.448;2023-03-23T00:01:05;11.20;99.90
8475;DHT22;4274;52.012;8.448;2023-03-23T00:03:31;11.10;99.90
8475;DHT22;4274;52.012;8.448;2023-03-23T00:06:00;11.10;99.90
8475;DHT22;4274;52.012;8.448;2023-03-23T00:08:28;11.00;99.90
8475;DHT22;4274;52.012;8.448;2023-03-23T00:10:53;11.00;99.90
8475;DHT22;4274;52.012;8.448;2023-03-23T00:13:25;10.90;99.90
8475;DHT22;4274;52.012;8.448;2023-03-23T00:15:51;10.90;99.90
8475;DHT22;4274;52.012;8.448;2023-03-23T00:18:20;10.80;99.90
8475;DHT22;4274;52.012;8.448;2023-03-23T00:20:50;10.80;99.90
8475;DHT22;4274;52.012;8.448;2023-03-23T00:23:17;10.80;99.90
8475;DHT22;4274;52.012;8.448;2023-03-23T00:25:48;10.80;99.90
8475;DHT22;4274;52.012;8.448;2023-03-23T00:28:15;10.80;99.90
8475;DHT22;4274;52.012;8.448;2023-03-23T00:30:41;10.80;99.90
8475;DHT22;4274;52.012;8.448;2023-03-23T00:33:10;10.80;99.90
8475;DHT22;4274;52.012;8.448;2023-03-23T00:35:39;10.80;99.90
8475;DHT22;4274;52.012;8.448;2023-03-23T00:38:05;10.80;99.90
8475;DHT22;4274;52.012;8.448;2023-03-23T00:40:30;10.80;99.90
8475;DHT22;4274;52.012;8.448;2023-03-23T00:42:56;10.70;99.90
8475;DHT22;4274;52.012;8.448;2023-03-23T00:45:22;10.70;99.90
8475;DHT22;4274;52.012;8.448;2023-03-23T00:47:49;10.60;99.90
8475;DHT22;4274;52.012;8.448;2023-03-23T00:50:16;10.60;99.90
8475;DHT22;4274;52.012;8.448;2023-03-23T00:52:43;10.60;99.90
8475;DHT22;4274;52.012;8.448;2023-03-23T00:55:09;10.50;99.90
8475;DHT22;4274;52.012;8.448;2023-03-23T00:57:35;10.50;99.90
8475;DHT22;4274;52.012;8.448;2023-03-23T01:00:01;10.50;99.90
8475;DHT22;4274;52.012;8.448;2023-03-23T01:02:26;10.50;99.90
8475;DHT22;4274;52.012;8.448;2023-03-23T01:04:52;10.50;99.90
8475;DHT22;4274;52.012;8.448;2023-03-23T01:07:21;10.50;99.90
8475;DHT22;4274;52.012;8.448;2023-03-23T01:09:49;10.60;99.90
8475;DHT22;4274;52.012;8.448;2023-03-23T01:12:15;10.60;99.90
8475;DHT22;4274;52.012;8.448;2023-03-23T01:14:41;10.60;99.90
8475;DHT22;4274;52.012;8.448;2023-03-23T01:17:07;10.70;99.90
8475;DHT22;4274;52.012;8.448;2023-03-23T01:19:33;10.70;99.90
8475;DHT22;4274;52.012;8.448;2023-03-23T01:21:58;10.70;99.90
8475;DHT22;4274;52.012;8.448;2023-03-23T01:24:24;10.80;99.90
8475;DHT22;4274;52.012;8.448;2023-03-23T01:26:49;10.80;99.90
8475;DHT22;4274;52.012;8.448;2023-03-23T01:29:15;10.80;99.90
8475;DHT22;4274;52.012;8.448;2023-03-23T01:31:41;10.90;99.90
8475;DHT22;4274;52.012;8.448;2023-03-23T01:34:08;10.90;99.90
8475;DHT22;4274;52.012;8.448;2023-03-23T01:36:35;10.90;99.90
8475;DHT22;4274;52.012;8.448;2023-03-23T01:39:03;10.90;99.90
8475;DHT22;4274;52.012;8.448;2023-03-23T01:41:30;10.90;99.90
8475;DHT22;4274;52.012;8.448;2023-03-23T01:46:35;10.90;99.90
8475;DHT22;4274;52.012;8.448;2023-03-23T01:49:08;11.00;99.90
8475;DHT22;4274;52.012;8.448;2023-03-23T01:51:38;11.00;99.90
8475;DHT22;4274;52.012;8.448;2023-03-23T01:54:07;10.90;99.90
8475;DHT22;4274;52.012;8.448;2023-03-23T01:56:47;11.00;99.90
8475;DHT22;4274;52.012;8.448;2023-03-23T01:59:14;11.00;99.90
8475;DHT22;4274;52.012;8.448;2023-03-23T02:01:41;11.00;99.90
8475;DHT22;4274;52.012;8.448;2023-03-23T02:04:11;11.00;99.90
8475;DHT22;4274;52.012;8.448;2023-03-23T02:06:37;11.10;99.90
8475;DHT22;4274;52.012;8.448;2023-03-23T02:09:03;11.10;99.90
8475;DHT22;4274;52.012;8.448;2023-03-23T02:11:31;11.10;99.90
8475;DHT22;4274;52.012;8.448;2023-03-23T02:13:57;11.10;99.90
8475;DHT22;4274;52.012;8.448;2023-03-23T02:27:11;11.00;99.90
8475;DHT22;4274;52.012;8.448;2023-03-23T02:32:50;11.10;99.90
8475;DHT22;4274;52.012;8.448;2023-03-23T02:35:30;11.10;99.90
8475;DHT22;4274;52.012;8.448;2023-03-23T02:38:02;11.10;99.90
8475;DHT22;4274;52.012;8.448;2023-03-23T02:40:42;11.10;99.90
8475;DHT22;4274;52.012;8.448;2023-03-23T02:43:13;11.00;99.90
8475;DHT22;4274;52.012;8.448;2023-03-23T02:45:41;10.90;99.90
8475;DHT22;4274;52.012;8.448;2023-03-23T02:48:08;10.80;99.90
8475;DHT22;4274;52.012;8.448;2023-03-23T02:50:35;10.80;99.90
8475;DHT22;4274;52.012;8.448;2023-03-23T02:53:03;10.80;99.90
8475;DHT22;4274;52.012;8.448;2023-03-23T02:55:32;10.80;99.90
8475;DHT22;4274;52.012;8.448;2023-03-23T02:57:58;10.80;99.90
8475;DHT22;4274;52.012;8.448;2023-03-23T03:00:27;10.80;99.90
8475;DHT22;4274;52.012;8.448;2023-03-23T03:02:54;10.80;99.90
8475;DHT22;4274;52.012;8.448;2023-03-23T03:05:56;10.80;99.90
8475;DHT22;4274;52.012;8.448;2023-03-23T03:08:55;10.80;99.90
8475;DHT22;4274;52.012;8.448;2023-03-23T03:11:22;10.80;99.90
8475;DHT22;4274;52.012;8.448;2023-03-23T03:14:08;10.80;99.90
8475;DHT22;4274;52.012;8.448;2023-03-23T03:16:40;10.80;99.90
8475;DHT22;4274;52.012;8.448;2023-03-23T03:19:10;10.80;99.90
8475;DHT22;4274;52.012;8.448;2023-03-23T03:21:40;10.80;99.90
8475;DHT22;4274;52.012;8.448;2023-03-23T03:24:07;10.80;99.90
8475;DHT22;4274;52.012;8.448;2023-03-23T03:26:39;10.80;99.90
8475;DHT22;4274;52.012;8.448;2023-03-23T03:29:06;10.80;99.90
8475;DHT22;4274;52.012;8.448;2023-03-23T03:31:36;10.80;99.90
8475;DHT22;4274;52.012;8.448;2023-03-23T03:34:04;10.80;99.90
8475;DHT22;4274;52.012;8.448;2023-03-23T03:36:33;10.80;99.90
8475;DHT22;4274;52.012;8.448;2023-03-23T03:39:07;10.80;99.90
8475;DHT22;4274;52.012;8.448;2023-03-23T03:41:35;10.80;99.90
8475;DHT22;4274;52.012;8.448;2023-03-23T03:44:02;10.80;99.90
8475;DHT22;4274;52.012;8.448;2023-03-23T03:46:27;10.80;99.90
8475;DHT22;4274;52.012;8.448;2023-03-23T03:48:55;10.80;99.90
8475;DHT22;4274;52.012;8.448;2023-03-23T03:51:25;10.70;99.90
8475;DHT22;4274;52.012;8.448;2023-03-23T03:53:51;10.70;99.90
8475;DHT22;4274;52.012;8.448;2023-03-23T03:56:17;10.70;99.90
8475;DHT22;4274;52.012;8.448;2023-03-23T03:58:43;10.70;99.90
8475;DHT22;4274;52.012;8.448;2023-03-23T04:01:12;10.70;99.90
8475;DHT22;4274;52.012;8.448;2023-03-23T04:03:39;10.70;99.90
8475;DHT22;4274;52.012;8.448;2023-03-23T04:06:05;10.70;99.90
8475;DHT22;4274;52.012;8.448;2023-03-23T04:08:31;10.70;99.90
8475;DHT22;4274;52.012;8.448;2023-03-23T04:10:57;10.70;99.90
8475;DHT22;4274;52.012;8.448;2023-03-23T04:13:23;10.70;99.90
8475;DHT22;4274;52.012;8.448;2023-03-23T04:15:49;10.70;99.90
8475;DHT22;4274;52.012;8.448;2023-03-23T04:18:15;10.70;99.90
8475;DHT22;4274;52.012;8.448;2023-03-23T04:20:46;10.70;99.90
8475;DHT22;4274;52.012;8.448;2023-03-23T04:23:13;10.70;99.90
8475;DHT22;4274;52.012;8.448;2023-03-23T04:25:39;10.70;99.90
8475;DHT22;4274;52.012;8.448;2023-03-23T04:28:07;10.70;99.90
8475;DHT22;4274;52.012;8.448;2023-03-23T04:30:35;10.70;99.90
8475;DHT22;4274;52.012;8.448;2023-03-23T04:33:02;10.70;99.90
8475;DHT22;4274;52.012;8.448;2023-03-23T04:35:28;10.70;99.90
8475;DHT22;4274;52.012;8.448;2023-03-23T04:37:55;10.70;99.90
8475;DHT22;4274;52.012;8.448;2023-03-23T04:40:23;10.70;99.90
8475;DHT22;4274;52.012;8.448;2023-03-23T04:42:48;10.70;99.90
8475;DHT22;4274;52.012;8.448;2023-03-23T04:45:20;10.70;99.90
8475;DHT22;4274;52.012;8.448;2023-03-23T04:47:50;10.70;99.90
8475;DHT22;4274;52.012;8.448;2023-03-23T04:50:21;10.70;99.90
8475;DHT22;4274;52.012;8.448;2023-03-23T04:52:49;10.80;99.90
8475;DHT22;4274;52.012;8.448;2023-03-23T04:55:17;10.80;99.90
8475;DHT22;4274;52.012;8.448;2023-03-23T04:57:44;10.80;99.90
8475;DHT22;4274;52.012;8.448;2023-03-23T05:00:10;10.80;99.90
8475;DHT22;4274;52.012;8.448;2023-03-23T05:02:40;10.80;99.90
8475;DHT22;4274;52.012;8.448;2023-03-23T05:05:11;10.80;99.90
8475;DHT22;4274;52.012;8.448;2023-03-23T05:07:41;10.80;99.90
8475;DHT22;4274;52.012;8.448;2023-03-23T05:10:08;10.80;99.90
8475;DHT22;4274;52.012;8.448;2023-03-23T05:12:35;10.80;99.90
8475;DHT22;4274;52.012;8.448;2023-03-23T05:15:01;10.80;99.90
8475;DHT22;4274;52.012;8.448;2023-03-23T05:17:27;10.80;99.90
8475;DHT22;4274;52.012;8.448;2023-03-23T05:19:53;10.80;99.90
8475;DHT22;4274;52.012;8.448;2023-03-23T05:22:19;10.80;99.90
8475;DHT22;4274;52.012;8.448;2023-03-23T05:24:46;10.80;99.90
8475;DHT22;4274;52.012;8.448;2023-03-23T05:27:13;10.80;99.90
8475;DHT22;4274;52.012;8.448;2023-03-23T05:29:40;10.80;99.90
8475;DHT22;4274;52.012;8.448;2023-03-23T05:32:07;10.80;99.90
8475;DHT22;4274;52.012;8.448;2023-03-23T05:34:34;10.80;99.90
8475;DHT22;4274;52.012;8.448;2023-03-23T05:37:01;10.80;99.90
8475;DHT22;4274;52.012;8.448;2023-03-23T05:39:30;10.80;99.90
8475;DHT22;4274;52.012;8.448;2023-03-23T05:41:56;10.80;99.90
8475;DHT22;4274;52.012;8.448;2023-03-23T05:44:23;10.80;99.90
8475;DHT22;4274;52.012;8.448;2023-03-23T05:46:49;10.80;99.90
8475;DHT22;4274;52.012;8.448;2023-03-23T05:49:15;10.80;99.90
8475;DHT22;4274;52.012;8.448;2023-03-23T05:51:44;10.80;99.90
8475;DHT22;4274;52.012;8.448;2023-03-23T05:54:11;10.80;99.90
8475;DHT22;4274;52.012;8.448;2023-03-23T05:56:38;10.90;99.90
8475;DHT22;4274;52.012;8.448;2023-03-23T05:59:04;10.90;99.90
8475;DHT22;4274;52.012;8.448;2023-03-23T06:01:29;10.90;99.90
8475;DHT22;4274;52.012;8.448;2023-03-23T06:03:55;10.90;99.90
8475;DHT22;4274;52.012;8.448;2023-03-23T06:06:24;10.90;99.90
8475;DHT22;4274;52.012;8.448;2023-03-23T06:08:50;11.00;99.90
8475;DHT22;4274;52.012;8.448;2023-03-23T06:11:16;11.00;99.90
8475;DHT22;4274;52.012;8.448;2023-03-23T06:13:41;11.00;99.90
8475;DHT22;4274;52.012;8.448;2023-03-23T06:16:08;11.00;99.90
8475;DHT22;4274;52.012;8.448;2023-03-23T06:18:34;11.10;99.90
8475;DHT22;4274;52.012;8.448;2023-03-23T06:21:02;11.10;99.90
8475;DHT22;4274;52.012;8.448;2023-03-23T06:23:28;11.10;99.90
8475;DHT22;4274;52.012;8.448;2023-03-23T06:25:58;11.20;99.90
8475;DHT22;4274;52.012;8.448;2023-03-23T06:28:24;11.20;99.90
8475;DHT22;4274;52.012;8.448;2023-03-23T06:30:50;11.20;99.90
8475;DHT22;4274;52.012;8.448;2023-03-23T06:33:16;11.30;99.90
8475;DHT22;4274;52.012;8.448;2023-03-23T06:35:42;11.20;99.90
8475;DHT22;4274;52.012;8.448;2023-03-23T06:38:08;11.30;99.90
8475;DHT22;4274;52.012;8.448;2023-03-23T06:40:34;11.30;99.90
8475;DHT22;4274;52.012;8.448;2023-03-23T06:43:01;11.30;99.90
8475;DHT22;4274;52.012;8.448;2023-03-23T06:45:31;11.40;99.90
8475;DHT22;4274;52.012;8.448;2023-03-23T06:47:56;11.50;99.90
8475;DHT22;4274;52.012;8.448;2023-03-23T06:50:22;11.60;99.90
8475;DHT22;4274;52.012;8.448;2023-03-23T06:52:50;11.60;99.90
8475;DHT22;4274;52.012;8.448;2023-03-23T06:55:16;11.60;99.90
8475;DHT22;4274;52.012;8.448;2023-03-23T06:57:43;11.70;99.90
8475;DHT22;4274;52.012;8.448;2023-03-23T07:00:10;11.60;99.90
8475;DHT22;4274;52.012;8.448;2023-03-23T07:02:38;11.70;99.90
8475;DHT22;4274;52.012;8.448;2023-03-23T07:05:04;11.70;99.90
8475;DHT22;4274;52.012;8.448;2023-03-23T07:07:30;11.70;99.90
8475;DHT22;4274;52.012;8.448;2023-03-23T07:09:56;11.70;99.90
8475;DHT22;4274;52.012;8.448;2023-03-23T07:12:22;11.70;99.90
8475;DHT22;4274;52.012;8.448;2023-03-23T07:14:48;11.70;99.90
8475;DHT22;4274;52.012;8.448;2023-03-23T07:17:13;11.80;99.90
8475;DHT22;4274;52.012;8.448;2023-03-23T07:19:39;11.80;99.90
8475;DHT22;4274;52.012;8.448;2023-03-23T07:22:06;11.80;99.90
8475;DHT22;4274;52.012;8.448;2023-03-23T07:24:32;11.90;99.90
8475;DHT22;4274;52.012;8.448;2023-03-23T07:26:59;12.00;99.90
8475;DHT22;4274;52.012;8.448;2023-03-23T07:29:24;12.10;99.90
8475;DHT22;4274;52.012;8.448;2023-03-23T07:31:50;12.30;99.90
8475;DHT22;4274;52.012;8.448;2023-03-23T07:34:17;12.40;99.90
8475;DHT22;4274;52.012;8.448;2023-03-23T07:36:44;12.40;99.90
8475;DHT22;4274;52.012;8.448;2023-03-23T07:39:11;12.50;99.90
8475;DHT22;4274;52.012;8.448;2023-03-23T07:41:37;12.60;99.90
8475;DHT22;4274;52.012;8.448;2023-03-23T07:44:03;12.60;99.90
8475;DHT22;4274;52.012;8.448;2023-03-23T07:46:29;12.60;99.90
8475;DHT22;4274;52.012;8.448;2023-03-23T07:48:55;12.60;99.90
8475;DHT22;4274;52.012;8.448;2023-03-23T07:51:22;12.50;99.90
8475;DHT22;4274;52.012;8.448;2023-03-23T07:53:48;12.50;99.90
8475;DHT22;4274;52.012;8.448;2023-03-23T07:56:14;12.40;99.90
8475;DHT22;4274;52.012;8.448;2023-03-23T07:58:44;12.30;99.90
8475;DHT22;4274;52.012;8.448;2023-03-23T08:01:10;12.20;99.90
8475;DHT22;4274;52.012;8.448;2023-03-23T08:03:36;12.20;99.90
8475;DHT22;4274;52.012;8.448;2023-03-23T08:06:03;12.10;99.90
8475;DHT22;4274;52.012;8.448;2023-03-23T08:08:28;12.10;99.90
8475;DHT22;4274;52.012;8.448;2023-03-23T08:10:55;12.10;99.90
8475;DHT22;4274;52.012;8.448;2023-03-23T08:13:21;12.10;99.90
8475;DHT22;4274;52.012;8.448;2023-03-23T08:15:46;12.10;99.90
8475;DHT22;4274;52.012;8.448;2023-03-23T08:18:12;12.10;99.90
8475;DHT22;4274;52.012;8.448;2023-03-23T08:20:37;12.10;99.90
8475;DHT22;4274;52.012;8.448;2023-03-23T08:23:03;12.20;99.90
8475;DHT22;4274;52.012;8.448;2023-03-23T08:25:30;12.20;99.90
8475;DHT22;4274;52.012;8.448;2023-03-23T08:27:59;12.20;99.90
8475;DHT22;4274;52.012;8.448;2023-03-23T08:30:27;12.20;99.90
8475;DHT22;4274;52.012;8.448;2023-03-23T08:32:55;12.20;99.90
8475;DHT22;4274;52.012;8.448;2023-03-23T08:35:21;12.20;99.90
8475;DHT22;4274;52.012;8.448;2023-03-23T08:37:47;12.30;99.90
8475;DHT22;4274;52.012;8.448;2023-03-23T08:40:17;12.30;99.90
8475;DHT22;4274;52.012;8.448;2023-03-23T08:42:45;12.30;99.90
8475;DHT22;4274;52.012;8.448;2023-03-23T08:45:13;12.30;99.90
8475;DHT22;4274;52.012;8.448;2023-03-23T08:47:40;12.30;99.90
8475;DHT22;4274;52.012;8.448;2023-03-23T08:50:13;12.30;99.90
8475;DHT22;4274;52.012;8.448;2023-03-23T08:52:39;12.40;99.90
8475;DHT22;4274;52.012;8.448;2023-03-23T08:55:05;12.40;99.90
8475;DHT22;4274;52.012;8.448;2023-03-23T08:57:34;12.40;99.90
8475;DHT22;4274;52.012;8.448;2023-03-23T09:00:05;12.50;99.90
8475;DHT22;4274;52.012;8.448;2023-03-23T09:02:44;12.50;99.90
8475;DHT22;4274;52.012;8.448;2023-03-23T09:05:10;12.60;99.90
8475;DHT22;4274;52.012;8.448;2023-03-23T09:07:41;12.60;99.90
8475;DHT22;4274;52.012;8.448;2023-03-23T09:10:08;12.70;99.90
8475;DHT22;4274;52.012;8.448;2023-03-23T09:12:34;12.70;99.90
8475;DHT22;4274;52.012;8.448;2023-03-23T09:15:02;12.80;99.90
8475;DHT22;4274;52.012;8.448;2023-03-23T09:17:37;12.80;99.90
8475;DHT22;4274;52.012;8.448;2023-03-23T09:20:05;12.90;99.90
8475;DHT22;4274;52.012;8.448;2023-03-23T09:22:42;13.00;99.90
8475;DHT22;4274;52.012;8.448;2023-03-23T09:25:10;13.10;99.90
8475;DHT22;4274;52.012;8.448;2023-03-23T09:27:36;13.20;99.90
8475;DHT22;4274;52.012;8.448;2023-03-23T09:30:07;13.20;99.90
8475;DHT22;4274;52.012;8.448;2023-03-23T09:32:34;13.30;99.90
8475;DHT22;4274;52.012;8.448;2023-03-23T09:35:01;13.40;99.90
8475;DHT22;4274;52.012;8.448;2023-03-23T09:37:27;13.40;99.90
8475;DHT22;4274;52.012;8.448;2023-03-23T09:39:53;13.40;99.90
8475;DHT22;4274;52.012;8.448;2023-03-23T09:47:44;13.20;99.90
8475;DHT22;4274;52.012;8.448;2023-03-23T09:50:20;13.10;99.90
8475;DHT22;4274;52.012;8.448;2023-03-23T09:52:55;13.00;99.90
8475;DHT22;4274;52.012;8.448;2023-03-23T09:55:22;13.00;99.90
8475;DHT22;4274;52.012;8.448;2023-03-23T10:00:50;13.00;99.90
8475;DHT22;4274;52.012;8.448;2023-03-23T10:03:21;13.00;99.90
8475;DHT22;4274;52.012;8.448;2023-03-23T10:05:50;13.00;99.90
8475;DHT22;4274;52.012;8.448;2023-03-23T10:08:19;13.10;99.90
8475;DHT22;4274;52.012;8.448;2023-03-23T10:13:57;13.20;99.90
8475;DHT22;4274;52.012;8.448;2023-03-23T10:16:27;13.30;99.90
8475;DHT22;4274;52.012;8.448;2023-03-23T10:19:20;13.50;99.90
8475;DHT22;4274;52.012;8.448;2023-03-23T10:21:58;13.80;99.90
8475;DHT22;4274;52.012;8.448;2023-03-23T10:24:38;14.20;99.90
8475;DHT22;4274;52.012;8.448;2023-03-23T10:27:19;14.30;99.90
8475;DHT22;4274;52.012;8.448;2023-03-23T10:29:51;14.30;99.90
8475;DHT22;4274;52.012;8.448;2023-03-23T10:32:22;14.30;99.90
8475;DHT22;4274;52.012;8.448;2023-03-23T10:34:56;14.40;99.90
8475;DHT22;4274;52.012;8.448;2023-03-23T10:37:32;14.40;99.90
8475;DHT22;4274;52.012;8.448;2023-03-23T10:40:04;14.40;99.90
8475;DHT22;4274;52.012;8.448;2023-03-23T10:42:37;14.40;99.90
8475;DHT22;4274;52.012;8.448;2023-03-23T10:45:30;14.30;99.90
8475;DHT22;4274;52.012;8.448;2023-03-23T10:48:19;14.10;99.90
8475;DHT22;4274;52.012;8.448;2023-03-23T10:50:49;14.00;99.90
8475;DHT22;4274;52.012;8.448;2023-03-23T10:53:26;13.90;99.90
8475;DHT22;4274;52.012;8.448;2023-03-23T10:55:53;13.50;99.90
8475;DHT22;4274;52.012;8.448;2023-03-23T10:58:29;12.90;99.90
8475;DHT22;4274;52.012;8.448;2023-03-23T11:00:56;12.20;99.90
8475;DHT22;4274;52.012;8.448;2023-03-23T11:03:38;11.70;99.90
8475;DHT22;4274;52.012;8.448;2023-03-23T11:06:09;11.30;99.90
8475;DHT22;4274;52.012;8.448;2023-03-23T11:08:47;11.00;99.90
8475;DHT22;4274;52.012;8.448;2023-03-23T11:11:17;10.80;99.90
8475;DHT22;4274;52.012;8.448;2023-03-23T11:13:46;10.70;99.90
8475;DHT22;4274;52.012;8.448;2023-03-23T11:16:23;10.50;99.90
8475;DHT22;4274;52.012;8.448;2023-03-23T11:18:49;10.40;99.90
8475;DHT22;4274;52.012;8.448;2023-03-23T11:21:15;10.20;99.90
8475;DHT22;4274;52.012;8.448;2023-03-23T11:23:43;10.10;99.90
8475;DHT22;4274;52.012;8.448;2023-03-23T11:26:27;10.00;99.90
8475;DHT22;4274;52.012;8.448;2023-03-23T11:31:47;10.00;99.90
8475;DHT22;4274;52.012;8.448;2023-03-23T11:34:32;10.00;99.90
8475;DHT22;4274;52.012;8.448;2023-03-23T11:37:09;10.10;99.90
8475;DHT22;4274;52.012;8.448;2023-03-23T11:40:01;10.20;99.90
8475;DHT22;4274;52.012;8.448;2023-03-23T11:42:48;10.20;99.90
8475;DHT22;4274;52.012;8.448;2023-03-23T11:48:21;10.20;99.90
8475;DHT22;4274;52.012;8.448;2023-03-23T11:50:55;10.20;99.90
8475;DHT22;4274;52.012;8.448;2023-03-23T11:58:50;10.20;99.90
8475;DHT22;4274;52.012;8.448;2023-03-23T12:04:07;10.20;99.90
8475;DHT22;4274;52.012;8.448;2023-03-23T12:12:35;10.20;99.90
8475;DHT22;4274;52.012;8.448;2023-03-23T12:15:11;10.20;99.90
8475;DHT22;4274;52.012;8.448;2023-03-23T12:23:23;10.20;99.90
8475;DHT22;4274;52.012;8.448;2023-03-23T12:37:28;10.40;99.90
8475;DHT22;4274;52.012;8.448;2023-03-23T12:40:11;10.40;99.90
8475;DHT22;4274;52.012;8.448;2023-03-23T12:43:12;10.50;99.90
8475;DHT22;4274;52.012;8.448;2023-03-23T12:48:50;10.50;99.90
8475;DHT22;4274;52.012;8.448;2023-03-23T12:51:26;10.50;99.90
8475;DHT22;4274;52.012;8.448;2023-03-23T13:01:57;11.00;99.90
8475;DHT22;4274;52.012;8.448;2023-03-23T13:04:30;11.10;99.90
8475;DHT22;4274;52.012;8.448;2023-03-23T13:07:00;11.20;99.90
8475;DHT22;4274;52.012;8.448;2023-03-23T13:09:50;11.10;99.90
8475;DHT22;4274;52.012;8.448;2023-03-23T13:12:18;11.10;99.90
8475;DHT22;4274;52.012;8.448;2023-03-23T13:25:54;11.10;99.90
8475;DHT22;4274;52.012;8.448;2023-03-23T13:28:34;11.20;99.90
8475;DHT22;4274;52.012;8.448;2023-03-23T13:31:14;11.20;99.90
8475;DHT22;4274;52.012;8.448;2023-03-23T13:33:46;11.20;99.90
8475;DHT22;4274;52.012;8.448;2023-03-23T13:36:15;11.30;99.90
8475;DHT22;4274;52.012;8.448;2023-03-23T13:38:48;11.40;99.90
8475;DHT22;4274;52.012;8.448;2023-03-23T13:41:16;11.50;99.90
8475;DHT22;4274;52.012;8.448;2023-03-23T13:43:43;11.70;99.90
8475;DHT22;4274;52.012;8.448;2023-03-23T13:48:48;11.80;99.90
8475;DHT22;4274;52.012;8.448;2023-03-23T13:51:51;11.70;99.90
8475;DHT22;4274;52.012;8.448;2023-03-23T13:54:30;11.50;99.90
8475;DHT22;4274;52.012;8.448;2023-03-23T13:56:59;11.40;99.90
8475;DHT22;4274;52.012;8.448;2023-03-23T14:01:55;11.40;99.90
8475;DHT22;4274;52.012;8.448;2023-03-23T14:04:23;11.50;99.90
8475;DHT22;4274;52.012;8.448;2023-03-23T14:06:56;11.50;99.90
8475;DHT22;4274;52.012;8.448;2023-03-23T14:09:31;11.50;99.90
8475;DHT22;4274;52.012;8.448;2023-03-23T14:12:00;11.50;99.90
8475;DHT22;4274;52.012;8.448;2023-03-23T14:14:38;11.50;99.90
8475;DHT22;4274;52.012;8.448;2023-03-23T14:17:16;11.60;99.90
8475;DHT22;4274;52.012;8.448;2023-03-23T14:19:47;11.60;99.90
8475;DHT22;4274;52.012;8.448;2023-03-23T14:24:50;11.50;99.90
8475;DHT22;4274;52.012;8.448;2023-03-23T14:27:21;11.50;99.90
8475;DHT22;4274;52.012;8.448;2023-03-23T14:30:00;11.50;99.90
8475;DHT22;4274;52.012;8.448;2023-03-23T14:32:28;11.40;99.90
8475;DHT22;4274;52.012;8.448;2023-03-23T14:34:54;11.40;99.90
8475;DHT22;4274;52.012;8.448;2023-03-23T14:37:21;11.40;99.90
8475;DHT22;4274;52.012;8.448;2023-03-23T14:39:52;11.40;99.90
8475;DHT22;4274;52.012;8.448;2023-03-23T14:42:22;11.40;99.90
8475;DHT22;4274;52.012;8.448;2023-03-23T14:44:50;11.40;99.90
8475;DHT22;4274;52.012;8.448;2023-03-23T14:47:28;11.60;99.90
8475;DHT22;4274;52.012;8.448;2023-03-23T14:49:56;11.70;99.90
8475;DHT22;4274;52.012;8.448;2023-03-23T14:52:26;11.90;99.90
8475;DHT22;4274;52.012;8.448;2023-03-23T14:54:52;12.10;99.90
8475;DHT22;4274;52.012;8.448;2023-03-23T14:57:25;12.50;99.90
8475;DHT22;4274;52.012;8.448;2023-03-23T14:59:52;12.70;99.90
8475;DHT22;4274;52.012;8.448;2023-03-23T15:02:30;13.00;99.90
8475;DHT22;4274;52.012;8.448;2023-03-23T15:04:59;13.00;99.90
8475;DHT22;4274;52.012;8.448;2023-03-23T15:07:30;12.90;99.90
8475;DHT22;4274;52.012;8.448;2023-03-23T15:09:58;12.90;99.90
8475;DHT22;4274;52.012;8.448;2023-03-23T15:12:27;12.90;99.90
8475;DHT22;4274;52.012;8.448;2023-03-23T15:15:00;12.80;99.90
8475;DHT22;4274;52.012;8.448;2023-03-23T15:17:29;12.80;99.90
8475;DHT22;4274;52.012;8.448;2023-03-23T15:19:56;12.70;99.90
8475;DHT22;4274;52.012;8.448;2023-03-23T15:22:28;12.70;99.90
8475;DHT22;4274;52.012;8.448;2023-03-23T15:27:41;12.70;99.90
8475;DHT22;4274;52.012;8.448;2023-03-23T15:30:29;12.70;99.90
8475;DHT22;4274;52.012;8.448;2023-03-23T15:33:03;12.70;99.90
8475;DHT22;4274;52.012;8.448;2023-03-23T15:35:34;12.60;99.90
8475;DHT22;4274;52.012;8.448;2023-03-23T15:38:03;12.60;99.90
8475;DHT22;4274;52.012;8.448;2023-03-23T15:40:34;12.50;99.90
8475;DHT22;4274;52.012;8.448;2023-03-23T15:43:21;12.50;99.90
8475;DHT22;4274;52.012;8.448;2023-03-23T15:51:15;12.30;99.90
8475;DHT22;4274;52.012;8.448;2023-03-23T15:53:41;12.20;99.90
8475;DHT22;4274;52.012;8.448;2023-03-23T15:56:09;12.20;99.90
8475;DHT22;4274;52.012;8.448;2023-03-23T15:58:36;12.20;99.90
8475;DHT22;4274;52.012;8.448;2023-03-23T16:01:04;12.20;99.90
8475;DHT22;4274;52.012;8.448;2023-03-23T16:03:48;12.10;99.90
8475;DHT22;4274;52.012;8.448;2023-03-23T16:06:16;12.20;99.90
8475;DHT22;4274;52.012;8.448;2023-03-23T16:08:42;12.30;99.90
8475;DHT22;4274;52.012;8.448;2023-03-23T16:11:12;12.30;99.90
8475;DHT22;4274;52.012;8.448;2023-03-23T16:13:39;12.40;99.90
8475;DHT22;4274;52.012;8.448;2023-03-23T16:16:06;12.40;99.90
8475;DHT22;4274;52.012;8.448;2023-03-23T16:18:35;12.50;99.90
8475;DHT22;4274;52.012;8.448;2023-03-23T16:21:01;12.50;99.90
8475;DHT22;4274;52.012;8.448;2023-03-23T16:23:28;12.50;99.90
8475;DHT22;4274;52.012;8.448;2023-03-23T16:25:53;12.50;99.90
8475;DHT22;4274;52.012;8.448;2023-03-23T16:28:19;12.50;99.90
8475;DHT22;4274;52.012;8.448;2023-03-23T16:30:46;12.60;99.90
8475;DHT22;4274;52.012;8.448;2023-03-23T16:33:12;12.50;99.90
8475;DHT22;4274;52.012;8.448;2023-03-23T16:35:38;12.30;99.90
8475;DHT22;4274;52.012;8.448;2023-03-23T16:38:04;12.30;99.90
8475;DHT22;4274;52.012;8.448;2023-03-23T16:40:30;12.20;99.90
8475;DHT22;4274;52.012;8.448;2023-03-23T16:42:57;12.20;99.90
8475;DHT22;4274;52.012;8.448;2023-03-23T16:45:23;12.20;99.90
8475;DHT22;4274;52.012;8.448;2023-03-23T16:47:49;12.20;99.90
8475;DHT22;4274;52.012;8.448;2023-03-23T16:50:17;12.10;99.90
8475;DHT22;4274;52.012;8.448;2023-03-23T16:52:44;12.10;99.90
8475;DHT22;4274;52.012;8.448;2023-03-23T16:55:13;12.00;99.90
8475;DHT22;4274;52.012;8.448;2023-03-23T16:57:39;11.90;99.90
8475;DHT22;4274;52.012;8.448;2023-03-23T17:00:08;11.80;99.90
8475;DHT22;4274;52.012;8.448;2023-03-23T17:02:36;11.80;99.90
8475;DHT22;4274;52.012;8.448;2023-03-23T17:05:02;11.80;99.90
8475;DHT22;4274;52.012;8.448;2023-03-23T17:07:28;11.80;99.90
8475;DHT22;4274;52.012;8.448;2023-03-23T17:09:54;11.80;99.90
8475;DHT22;4274;52.012;8.448;2023-03-23T17:12:20;11.70;99.90
8475;DHT22;4274;52.012;8.448;2023-03-23T17:14:46;11.60;99.90
8475;DHT22;4274;52.012;8.448;2023-03-23T17:17:11;11.60;99.90
8475;DHT22;4274;52.012;8.448;2023-03-23T17:19:37;11.50;99.90
8475;DHT22;4274;52.012;8.448;2023-03-23T17:22:03;11.50;99.90
8475;DHT22;4274;52.012;8.448;2023-03-23T17:24:29;11.40;99.90
8475;DHT22;4274;52.012;8.448;2023-03-23T17:26:54;11.40;99.90
8475;DHT22;4274;52.012;8.448;2023-03-23T17:29:20;11.30;99.90
8475;DHT22;4274;52.012;8.448;2023-03-23T17:31:47;11.30;99.90
8475;DHT22;4274;52.012;8.448;2023-03-23T17:34:14;11.20;99.90
8475;DHT22;4274;52.012;8.448;2023-03-23T17:36:40;11.20;99.90
8475;DHT22;4274;52.012;8.448;2023-03-23T17:39:05;11.20;99.90
8475;DHT22;4274;52.012;8.448;2023-03-23T17:41:31;11.20;99.90
8475;DHT22;4274;52.012;8.448;2023-03-23T17:43:57;11.20;99.90
8475;DHT22;4274;52.012;8.448;2023-03-23T17:46:22;11.20;99.90
8475;DHT22;4274;52.012;8.448;2023-03-23T17:48:49;11.20;99.90
8475;DHT22;4274;52.012;8.448;2023-03-23T17:51:14;11.20;99.90
8475;DHT22;4274;52.012;8.448;2023-03-23T17:53:40;11.20;99.90
8475;DHT22;4274;52.012;8.448;2023-03-23T17:56:06;11.20;99.90
8475;DHT22;4274;52.012;8.448;2023-03-23T17:58:32;11.20;99.90